sensor_id;sensor_type;location;lat;lon;timestamp;pressure;altitude;pressure_sealevel;temperature;humidity
6425;BME280;12193;42.642;23.384;2022-11-18T04:08:38;93453.13;;;7.19;100.00
6425;BME280;12193;42.642;23.384;2022-11-18T04:11:13;93431.97;;;7.42;100.00
6425;BME280;12193;42.642;23.384;2022-11-18T04:13:57;93443.47;;;7.39;100.00
6425;BME280;12193;42.642;23.384;2022-11-18T04:16:27;93475.66;;;7.00;100.00
6425;BME280;12193;42.642;23.384;2022-11-18T04:18:57;93453.44;;;6.92;100.00
6425;BME280;12193;42.642;23.384;2022-11-18T04:21:26;93473.31;;;6.92;100.00
6425;BME280;12193;42.642;23.384;2022-11-18T04:23:58;93457.91;;;7.16;100.00
6425;BME280;12193;42.642;23.384;2022-11-18T04:26:27;93453.31;;;7.24;100.00
6425;BME280;12193;42.642;23.384;2022-11-18T04:28:57;93462.41;;;6.90;100.00
6425;BME280;12193;42.642;23.384;2022-11-18T04:31:26;93462.25;;;6.65;100.00
6425;BME280;12193;42.642;23.384;2022-11-18T04:33:55;93474.75;;;6.75;100.00
6425;BME280;12193;42.642;23.384;2022-11-18T04:36:24;93463.41;;;6.82;100.00
6425;BME280;12193;42.642;23.384;2022-11-18T04:38:54;93473.31;;;6.85;100.00
6425;BME280;12193;42.642;23.384;2022-11-18T04:41:25;93465.97;;;6.89;100.00
6425;BME280;12193;42.642;23.384;2022-11-18T04:44:07;93466.66;;;6.58;100.00
6425;BME280;12193;42.642;23.384;2022-11-18T04:46:39;93492.84;;;6.42;100.00
6425;BME280;12193;42.642;23.384;2022-11-18T04:49:10;93479.78;;;6.44;100.00
6425;BME280;12193;42.642;23.384;2022-11-18T04:51:40;93478.53;;;6.66;100.00
6425;BME280;12193;42.642;23.384;2022-11-18T04:54:10;93460.44;;;6.79;100.00
6425;BME280;12193;42.642;23.384;2022-11-18T04:56:42;93487.81;;;6.86;100.00
6425;BME280;12193;42.642;23.384;2022-11-18T04:59:13;93483.28;;;6.75;100.00
6425;BME280;12193;42.642;23.384;2022-11-18T05:01:42;93470.94;;;6.90;100.00
6425;BME280;12193;42.642;23.384;2022-11-18T05:04:14;93477.13;;;6.83;100.00
6425;BME280;12193;42.642;23.384;2022-11-18T05:06:44;93482.03;;;6.97;100.00
6425;BME280;12193;42.642;23.384;2022-11-18T05:09:13;93478.44;;;7.05;100.00
6425;BME280;12193;42.642;23.384;2022-11-18T05:11:45;93477.69;;;6.91;100.00
6425;BME280;12193;42.642;23.384;2022-11-18T05:14:28;93467.66;;;7.14;100.00
6425;BME280;12193;42.642;23.384;2022-11-18T05:16:58;93478.00;;;7.14;100.00
6425;BME280;12193;42.642;23.384;2022-11-18T05:19:28;93477.13;;;7.33;100.00
6425;BME280;12193;42.642;23.384;2022-11-18T05:21:57;93488.81;;;7.35;100.00
6425;BME280;12193;42.642;23.384;2022-11-18T05:24:26;93489.28;;;7.26;100.00
6425;BME280;12193;42.642;23.384;2022-11-18T05:26:58;93479.66;;;7.39;100.00
6425;BME280;12193;42.642;23.384;2022-11-18T05:29:27;93493.25;;;7.28;100.00
6425;BME280;12193;42.642;23.384;2022-11-18T05:31:58;93492.41;;;7.41;100.00
6425;BME280;12193;42.642;23.384;2022-11-18T05:34:27;93492.81;;;7.38;100.00
6425;BME280;12193;42.642;23.384;2022-11-18T05:36:57;93481.84;;;7.42;100.00
6425;BME280;12193;42.642;23.384;2022-11-18T05:39:26;93496.44;;;7.30;100.00
6425;BME280;12193;42.642;23.384;2022-11-18T05:41:58;93485.31;;;7.23;100.00
6425;BME280;12193;42.642;23.384;2022-11-18T05:44:40;93484.97;;;7.51;100.00
6425;BME280;12193;42.642;23.384;2022-11-18T05:47:09;93484.53;;;7.60;100.00
6425;BME280;12193;42.642;23.384;2022-11-18T05:49:39;93478.94;;;7.63;100.00
6425;BME280;12193;42.642;23.384;2022-11-18T05:52:08;93474.69;;;7.44;100.00
6425;BME280;12193;42.642;23.384;2022-11-18T05:54:38;93494.63;;;7.31;100.00
6425;BME280;12193;42.642;23.384;2022-11-18T05:57:10;93486.28;;;7.29;100.00
6425;BME280;12193;42.642;23.384;2022-11-18T05:59:39;93479.00;;;7.57;100.00
6425;BME280;12193;42.642;23.384;2022-11-18T06:02:12;93467.16;;;7.74;100.00
6425;BME280;12193;42.642;23.384;2022-11-18T06:04:43;93476.50;;;7.75;100.00
6425;BME280;12193;42.642;23.384;2022-11-18T06:07:17;93493.50;;;7.89;100.00
6425;BME280;12193;42.642;23.384;2022-11-18T06:09:50;93465.09;;;7.82;100.00
6425;BME280;12193;42.642;23.384;2022-11-18T06:12:26;93497.50;;;7.85;100.00
6425;BME280;12193;42.642;23.384;2022-11-18T06:14:59;93482.22;;;7.83;100.00
6425;BME280;12193;42.642;23.384;2022-11-18T06:17:34;93476.09;;;8.02;100.00
6425;BME280;12193;42.642;23.384;2022-11-18T06:20:08;93473.47;;;8.09;100.00
6425;BME280;12193;42.642;23.384;2022-11-18T06:22:38;93464.81;;;7.97;100.00
6425;BME280;12193;42.642;23.384;2022-11-18T06:25:08;93476.44;;;8.12;100.00
6425;BME280;12193;42.642;23.384;2022-11-18T06:27:40;93474.56;;;8.25;100.00
6425;BME280;12193;42.642;23.384;2022-11-18T06:30:11;93464.31;;;8.37;100.00
6425;BME280;12193;42.642;23.384;2022-11-18T06:32:40;93481.75;;;8.24;100.00
6425;BME280;12193;42.642;23.384;2022-11-18T06:35:09;93471.28;;;8.36;100.00
6425;BME280;12193;42.642;23.384;2022-11-18T06:37:39;93446.66;;;8.52;100.00
6425;BME280;12193;42.642;23.384;2022-11-18T06:40:09;93464.53;;;8.35;100.00
6425;BME280;12193;42.642;23.384;2022-11-18T06:42:42;93476.72;;;8.28;100.00
6425;BME280;12193;42.642;23.384;2022-11-18T06:45:23;93458.75;;;8.09;100.00
6425;BME280;12193;42.642;23.384;2022-11-18T06:47:55;93448.06;;;8.30;100.00
6425;BME280;12193;42.642;23.384;2022-11-18T06:50:25;93470.31;;;8.55;100.00
6425;BME280;12193;42.642;23.384;2022-11-18T06:52:54;93475.56;;;8.49;100.00
6425;BME280;12193;42.642;23.384;2022-11-18T06:55:24;93473.16;;;8.47;100.00
6425;BME280;12193;42.642;23.384;2022-11-18T06:57:57;93478.34;;;8.72;100.00
6425;BME280;12193;42.642;23.384;2022-11-18T07:00:26;93454.78;;;8.73;100.00
6425;BME280;12193;42.642;23.384;2022-11-18T07:02:55;93474.31;;;8.76;100.00
6425;BME280;12193;42.642;23.384;2022-11-18T07:05:24;93481.88;;;8.77;100.00
6425;BME280;12193;42.642;23.384;2022-11-18T07:07:53;93475.75;;;8.90;100.00
6425;BME280;12193;42.642;23.384;2022-11-18T07:10:23;93475.34;;;9.11;100.00
6425;BME280;12193;42.642;23.384;2022-11-18T07:12:52;93468.63;;;9.03;100.00
6425;BME280;12193;42.642;23.384;2022-11-18T07:15:24;93477.84;;;9.17;100.00
6425;BME280;12193;42.642;23.384;2022-11-18T07:17:53;93472.44;;;9.01;100.00
6425;BME280;12193;42.642;23.384;2022-11-18T07:20:22;93457.31;;;8.98;100.00
6425;BME280;12193;42.642;23.384;2022-11-18T07:22:51;93471.00;;;8.87;100.00
6425;BME280;12193;42.642;23.384;2022-11-18T07:25:21;93456.22;;;8.69;100.00
6425;BME280;12193;42.642;23.384;2022-11-18T07:27:50;93427.81;;;9.17;100.00
6425;BME280;12193;42.642;23.384;2022-11-18T07:30:19;93427.78;;;9.64;100.00
6425;BME280;12193;42.642;23.384;2022-11-18T07:32:51;93447.28;;;9.37;100.00
6425;BME280;12193;42.642;23.384;2022-11-18T07:35:20;93448.47;;;8.87;100.00
6425;BME280;12193;42.642;23.384;2022-11-18T07:37:50;93432.22;;;9.45;100.00
6425;BME280;12193;42.642;23.384;2022-11-18T07:40:19;93420.91;;;9.40;100.00
6425;BME280;12193;42.642;23.384;2022-11-18T07:42:48;93435.41;;;9.29;100.00
6425;BME280;12193;42.642;23.384;2022-11-18T07:45:18;93419.66;;;9.72;100.00
6425;BME280;12193;42.642;23.384;2022-11-18T07:47:47;93437.69;;;9.55;100.00
6425;BME280;12193;42.642;23.384;2022-11-18T07:50:19;93435.41;;;10.40;100.00
6425;BME280;12193;42.642;23.384;2022-11-18T07:52:48;93419.06;;;9.99;100.00
6425;BME280;12193;42.642;23.384;2022-11-18T07:55:17;93427.25;;;10.14;100.00
6425;BME280;12193;42.642;23.384;2022-11-18T07:57:46;93430.00;;;9.60;100.00
6425;BME280;12193;42.642;23.384;2022-11-18T08:00:17;93446.53;;;9.48;100.00
6425;BME280;12193;42.642;23.384;2022-11-18T08:02:49;93444.56;;;9.61;100.00
6425;BME280;12193;42.642;23.384;2022-11-18T08:05:21;93430.13;;;9.65;100.00
6425;BME280;12193;42.642;23.384;2022-11-18T08:07:50;93442.00;;;9.73;100.00
6425;BME280;12193;42.642;23.384;2022-11-18T08:10:19;93459.78;;;9.58;100.00
6425;BME280;12193;42.642;23.384;2022-11-18T08:12:49;93484.41;;;9.37;100.00
6425;BME280;12193;42.642;23.384;2022-11-18T08:15:19;93489.03;;;9.94;100.00
6425;BME280;12193;42.642;23.384;2022-11-18T08:17:48;93474.88;;;10.08;100.00
6425;BME280;12193;42.642;23.384;2022-11-18T08:20:20;93476.16;;;10.74;100.00
6425;BME280;12193;42.642;23.384;2022-11-18T08:22:52;93475.16;;;10.64;100.00
6425;BME280;12193;42.642;23.384;2022-11-18T08:25:21;93450.94;;;11.60;100.00
6425;BME280;12193;42.642;23.384;2022-11-18T08:27:50;93452.69;;;11.32;100.00
6425;BME280;12193;42.642;23.384;2022-11-18T08:30:20;93453.81;;;11.75;100.00
6425;BME280;12193;42.642;23.384;2022-11-18T08:32:49;93441.91;;;14.54;100.00
6425;BME280;12193;42.642;23.384;2022-11-18T08:35:21;93425.78;;;14.66;100.00
6425;BME280;12193;42.642;23.384;2022-11-18T08:37:50;93436.94;;;15.35;100.00
6425;BME280;12193;42.642;23.384;2022-11-18T08:40:20;93429.78;;;15.81;100.00
6425;BME280;12193;42.642;23.384;2022-11-18T08:42:49;93428.44;;;14.71;100.00
6425;BME280;12193;42.642;23.384;2022-11-18T08:45:19;93414.13;;;13.90;100.00
6425;BME280;12193;42.642;23.384;2022-11-18T08:47:48;93419.91;;;13.23;100.00
6425;BME280;12193;42.642;23.384;2022-11-18T08:50:17;93406.47;;;13.57;100.00
6425;BME280;12193;42.642;23.384;2022-11-18T08:52:49;93400.56;;;12.81;100.00
6425;BME280;12193;42.642;23.384;2022-11-18T08:55:19;93389.78;;;11.90;100.00
6425;BME280;12193;42.642;23.384;2022-11-18T08:57:48;93390.06;;;11.61;100.00
6425;BME280;12193;42.642;23.384;2022-11-18T09:00:18;93362.63;;;11.86;100.00
6425;BME280;12193;42.642;23.384;2022-11-18T09:02:47;93358.19;;;11.42;100.00
6425;BME280;12193;42.642;23.384;2022-11-18T09:05:17;93362.78;;;11.36;100.00
6425;BME280;12193;42.642;23.384;2022-11-18T09:07:48;93348.44;;;12.10;100.00
6425;BME280;12193;42.642;23.384;2022-11-18T09:10:18;93357.16;;;13.13;100.00
6425;BME280;12193;42.642;23.384;2022-11-18T09:12:47;93355.94;;;13.42;100.00
6425;BME280;12193;42.642;23.384;2022-11-18T09:15:16;93352.88;;;14.80;100.00
6425;BME280;12193;42.642;23.384;2022-11-18T09:17:46;93338.19;;;12.96;100.00
6425;BME280;12193;42.642;23.384;2022-11-18T09:20:15;93354.00;;;13.11;100.00
6425;BME280;12193;42.642;23.384;2022-11-18T09:22:45;93344.38;;;12.90;100.00
6425;BME280;12193;42.642;23.384;2022-11-18T09:25:17;93330.38;;;12.20;100.00
6425;BME280;12193;42.642;23.384;2022-11-18T09:27:46;93325.53;;;12.29;100.00
6425;BME280;12193;42.642;23.384;2022-11-18T09:30:18;93335.50;;;11.82;100.00
6425;BME280;12193;42.642;23.384;2022-11-18T09:32:47;93347.53;;;12.38;100.00
6425;BME280;12193;42.642;23.384;2022-11-18T09:35:16;93345.47;;;12.77;100.00
6425;BME280;12193;42.642;23.384;2022-11-18T09:37:46;93341.47;;;12.48;100.00
6425;BME280;12193;42.642;23.384;2022-11-18T09:40:17;93338.53;;;12.83;100.00
6425;BME280;12193;42.642;23.384;2022-11-18T09:42:54;93328.34;;;13.24;100.00
6425;BME280;12193;42.642;23.384;2022-11-18T09:45:30;93331.00;;;13.08;100.00
6425;BME280;12193;42.642;23.384;2022-11-18T09:48:06;93305.34;;;14.05;100.00
6425;BME280;12193;42.642;23.384;2022-11-18T09:50:41;93290.81;;;15.27;100.00
6425;BME280;12193;42.642;23.384;2022-11-18T09:53:17;93305.03;;;14.84;100.00
6425;BME280;12193;42.642;23.384;2022-11-18T09:55:50;93280.91;;;15.54;100.00
6425;BME280;12193;42.642;23.384;2022-11-18T09:58:23;93280.13;;;16.58;94.79
6425;BME280;12193;42.642;23.384;2022-11-18T10:00:54;93283.31;;;15.75;96.21
6425;BME280;12193;42.642;23.384;2022-11-18T10:03:26;93280.41;;;15.57;100.00
6425;BME280;12193;42.642;23.384;2022-11-18T10:05:59;93280.59;;;16.74;96.60
6425;BME280;12193;42.642;23.384;2022-11-18T10:08:40;93274.44;;;17.04;91.27
6425;BME280;12193;42.642;23.384;2022-11-18T10:11:17;93283.69;;;16.86;90.83
6425;BME280;12193;42.642;23.384;2022-11-18T10:13:55;93281.56;;;15.09;100.00
6425;BME280;12193;42.642;23.384;2022-11-18T10:16:39;93290.78;;;14.56;100.00
6425;BME280;12193;42.642;23.384;2022-11-18T10:19:20;93303.16;;;13.66;100.00
6425;BME280;12193;42.642;23.384;2022-11-18T10:22:01;93284.44;;;13.48;100.00
6425;BME280;12193;42.642;23.384;2022-11-18T10:24:36;93274.88;;;14.21;100.00
6425;BME280;12193;42.642;23.384;2022-11-18T10:27:12;93263.09;;;14.64;100.00
6425;BME280;12193;42.642;23.384;2022-11-18T10:29:44;93254.56;;;14.94;100.00
6425;BME280;12193;42.642;23.384;2022-11-18T10:32:15;93256.06;;;14.24;100.00
6425;BME280;12193;42.642;23.384;2022-11-18T10:34:47;93234.63;;;14.78;92.14
6425;BME280;12193;42.642;23.384;2022-11-18T10:37:26;93226.16;;;15.82;84.70
6425;BME280;12193;42.642;23.384;2022-11-18T10:39:57;93236.88;;;16.35;81.04
6425;BME280;12193;42.642;23.384;2022-11-18T10:42:35;93214.31;;;16.34;85.66
6425;BME280;12193;42.642;23.384;2022-11-18T10:45:15;93231.16;;;15.93;84.86
6425;BME280;12193;42.642;23.384;2022-11-18T10:47:56;93211.19;;;16.27;78.14
6425;BME280;12193;42.642;23.384;2022-11-18T10:50:28;93212.66;;;17.21;70.19
6425;BME280;12193;42.642;23.384;2022-11-18T10:52:58;93212.81;;;16.91;79.51
6425;BME280;12193;42.642;23.384;2022-11-18T10:55:28;93209.16;;;15.45;93.45
6425;BME280;12193;42.642;23.384;2022-11-18T10:58:06;93197.63;;;15.61;89.49
6425;BME280;12193;42.642;23.384;2022-11-18T11:00:42;93193.66;;;15.23;95.71
6425;BME280;12193;42.642;23.384;2022-11-18T11:03:33;93201.28;;;14.44;100.00
6425;BME280;12193;42.642;23.384;2022-11-18T11:09:26;93194.47;;;13.55;100.00
6425;BME280;12193;42.642;23.384;2022-11-18T11:12:00;93199.50;;;13.66;100.00
6425;BME280;12193;42.642;23.384;2022-11-18T11:14:36;93196.09;;;14.54;97.84
6425;BME280;12193;42.642;23.384;2022-11-18T11:17:11;93198.44;;;14.45;99.17
6425;BME280;12193;42.642;23.384;2022-11-18T11:19:50;93192.59;;;14.33;98.15
6425;BME280;12193;42.642;23.384;2022-11-18T11:22:20;93193.19;;;14.50;98.96
6425;BME280;12193;42.642;23.384;2022-11-18T11:24:49;93181.75;;;14.61;99.70
6425;BME280;12193;42.642;23.384;2022-11-18T11:27:36;93172.91;;;14.82;98.60
6425;BME280;12193;42.642;23.384;2022-11-18T11:30:18;93177.91;;;14.88;97.30
6425;BME280;12193;42.642;23.384;2022-11-18T11:33:03;93170.03;;;14.73;97.98
6425;BME280;12193;42.642;23.384;2022-11-18T11:35:43;93142.91;;;14.23;100.00
6425;BME280;12193;42.642;23.384;2022-11-18T11:38:20;93160.00;;;13.94;100.00
6425;BME280;12193;42.642;23.384;2022-11-18T11:41:01;93176.53;;;13.68;100.00
6425;BME280;12193;42.642;23.384;2022-11-18T11:43:43;93182.78;;;13.62;100.00
6425;BME280;12193;42.642;23.384;2022-11-18T11:46:26;93173.09;;;13.63;100.00
6425;BME280;12193;42.642;23.384;2022-11-18T11:49:04;93172.16;;;13.79;100.00
6425;BME280;12193;42.642;23.384;2022-11-18T11:51:44;93157.00;;;13.71;100.00
6425;BME280;12193;42.642;23.384;2022-11-18T11:54:40;93165.25;;;13.58;100.00
6425;BME280;12193;42.642;23.384;2022-11-18T11:57:16;93159.63;;;13.40;100.00
6425;BME280;12193;42.642;23.384;2022-11-18T11:59:56;93158.94;;;13.49;100.00
6425;BME280;12193;42.642;23.384;2022-11-18T12:02:40;93164.81;;;13.71;100.00
6425;BME280;12193;42.642;23.384;2022-11-18T12:05:21;93160.66;;;13.75;100.00
6425;BME280;12193;42.642;23.384;2022-11-18T12:07:55;93162.66;;;13.63;100.00
6425;BME280;12193;42.642;23.384;2022-11-18T12:10:29;93169.50;;;13.69;100.00
6425;BME280;12193;42.642;23.384;2022-11-18T12:16:03;93154.78;;;13.58;100.00
6425;BME280;12193;42.642;23.384;2022-11-18T12:18:41;93156.38;;;13.59;100.00
6425;BME280;12193;42.642;23.384;2022-11-18T12:24:29;93160.88;;;13.68;100.00
6425;BME280;12193;42.642;23.384;2022-11-18T12:27:04;93158.56;;;13.72;100.00
6425;BME280;12193;42.642;23.384;2022-11-18T12:29:43;93146.75;;;13.64;100.00
6425;BME280;12193;42.642;23.384;2022-11-18T12:32:29;93120.97;;;13.73;100.00
6425;BME280;12193;42.642;23.384;2022-11-18T12:35:19;93133.53;;;13.40;100.00
6425;BME280;12193;42.642;23.384;2022-11-18T12:38:02;93131.59;;;13.66;100.00
6425;BME280;12193;42.642;23.384;2022-11-18T12:40:41;93123.53;;;13.68;100.00
6425;BME280;12193;42.642;23.384;2022-11-18T12:52:49;93120.81;;;13.94;100.00
6425;BME280;12193;42.642;23.384;2022-11-18T12:55:23;93099.63;;;13.91;100.00
6425;BME280;12193;42.642;23.384;2022-11-18T12:57:53;93095.44;;;13.90;100.00
6425;BME280;12193;42.642;23.384;2022-11-18T13:00:31;93089.22;;;13.96;100.00
6425;BME280;12193;42.642;23.384;2022-11-18T13:03:25;93084.63;;;14.23;100.00
6425;BME280;12193;42.642;23.384;2022-11-18T13:06:03;93095.09;;;14.28;100.00
6425;BME280;12193;42.642;23.384;2022-11-18T13:08:36;93082.09;;;14.57;96.70
6425;BME280;12193;42.642;23.384;2022-11-18T13:11:13;93083.69;;;14.68;91.30
6425;BME280;12193;42.642;23.384;2022-11-18T13:13:56;93073.78;;;14.90;94.83
6425;BME280;12193;42.642;23.384;2022-11-18T13:16:39;93071.69;;;14.92;94.60
6425;BME280;12193;42.642;23.384;2022-11-18T13:19:20;93073.75;;;14.85;96.76
6425;BME280;12193;42.642;23.384;2022-11-18T13:21:53;93065.66;;;14.92;93.42
6425;BME280;12193;42.642;23.384;2022-11-18T13:24:43;93049.97;;;15.27;87.13
6425;BME280;12193;42.642;23.384;2022-11-18T13:27:23;93053.06;;;16.27;75.17
6425;BME280;12193;42.642;23.384;2022-11-18T13:30:00;93056.31;;;16.62;71.63
6425;BME280;12193;42.642;23.384;2022-11-18T13:32:30;93057.41;;;16.89;68.22
6425;BME280;12193;42.642;23.384;2022-11-18T13:35:09;93031.81;;;17.10;67.01
6425;BME280;12193;42.642;23.384;2022-11-18T13:37:48;93042.50;;;17.18;68.01
6425;BME280;12193;42.642;23.384;2022-11-18T13:40:23;93045.19;;;17.08;67.87
6425;BME280;12193;42.642;23.384;2022-11-18T13:42:53;93040.13;;;17.17;67.27
6425;BME280;12193;42.642;23.384;2022-11-18T13:45:25;93028.50;;;17.28;63.84
6425;BME280;12193;42.642;23.384;2022-11-18T13:47:57;93056.25;;;17.39;64.88
6425;BME280;12193;42.642;23.384;2022-11-18T13:50:32;93069.94;;;17.36;64.67
6425;BME280;12193;42.642;23.384;2022-11-18T13:53:16;93083.72;;;17.51;63.41
6425;BME280;12193;42.642;23.384;2022-11-18T13:55:53;93080.41;;;17.41;66.25
6425;BME280;12193;42.642;23.384;2022-11-18T13:58:37;93077.59;;;17.32;65.87
6425;BME280;12193;42.642;23.384;2022-11-18T14:01:14;93068.94;;;17.32;66.03
6425;BME280;12193;42.642;23.384;2022-11-18T14:03:48;93071.56;;;17.27;67.30
6425;BME280;12193;42.642;23.384;2022-11-18T14:06:26;93101.78;;;17.24;67.49
6425;BME280;12193;42.642;23.384;2022-11-18T14:09:13;93087.97;;;17.47;65.22
6425;BME280;12193;42.642;23.384;2022-11-18T14:11:57;93036.97;;;17.48;65.58
6425;BME280;12193;42.642;23.384;2022-11-18T14:14:28;93022.22;;;17.52;63.12
6425;BME280;12193;42.642;23.384;2022-11-18T14:17:14;93040.34;;;17.54;63.10
6425;BME280;12193;42.642;23.384;2022-11-18T14:19:45;93009.06;;;17.57;62.43
6425;BME280;12193;42.642;23.384;2022-11-18T14:22:16;93006.69;;;17.56;62.92
6425;BME280;12193;42.642;23.384;2022-11-18T14:24:54;93028.38;;;17.66;61.86
6425;BME280;12193;42.642;23.384;2022-11-18T14:27:40;93036.00;;;17.68;62.08
6425;BME280;12193;42.642;23.384;2022-11-18T14:30:34;93029.75;;;17.64;61.91
6425;BME280;12193;42.642;23.384;2022-11-18T14:33:17;93024.69;;;17.44;63.48
6425;BME280;12193;42.642;23.384;2022-11-18T14:35:50;93037.88;;;17.39;64.34
6425;BME280;12193;42.642;23.384;2022-11-18T14:38:21;93038.19;;;17.32;64.87
6425;BME280;12193;42.642;23.384;2022-11-18T14:40:56;93022.94;;;17.29;65.37
6425;BME280;12193;42.642;23.384;2022-11-18T14:43:29;93010.88;;;17.28;65.28
6425;BME280;12193;42.642;23.384;2022-11-18T14:46:01;93029.75;;;17.35;63.53
6425;BME280;12193;42.642;23.384;2022-11-18T14:48:31;93044.69;;;17.40;63.76
6425;BME280;12193;42.642;23.384;2022-11-18T14:51:00;93044.34;;;17.46;63.07
6425;BME280;12193;42.642;23.384;2022-11-18T14:53:30;93046.72;;;17.48;63.07
6425;BME280;12193;42.642;23.384;2022-11-18T14:55:59;93061.94;;;17.51;62.85
6425;BME280;12193;42.642;23.384;2022-11-18T14:58:32;93044.22;;;17.61;63.01
6425;BME280;12193;42.642;23.384;2022-11-18T15:01:01;93049.94;;;17.40;63.58
6425;BME280;12193;42.642;23.384;2022-11-18T15:03:33;93055.69;;;17.42;64.17
6425;BME280;12193;42.642;23.384;2022-11-18T15:06:04;93071.03;;;17.30;65.20
6425;BME280;12193;42.642;23.384;2022-11-18T15:08:34;93074.25;;;17.22;65.86
6425;BME280;12193;42.642;23.384;2022-11-18T15:11:03;93080.13;;;17.09;67.00
6425;BME280;12193;42.642;23.384;2022-11-18T15:13:35;93066.88;;;16.85;71.25
6425;BME280;12193;42.642;23.384;2022-11-18T15:16:12;93070.69;;;16.69;73.23
6425;BME280;12193;42.642;23.384;2022-11-18T15:18:42;93049.47;;;16.61;73.75
6425;BME280;12193;42.642;23.384;2022-11-18T15:21:12;93061.56;;;16.57;74.38
6425;BME280;12193;42.642;23.384;2022-11-18T15:23:42;93039.84;;;16.52;74.98
6425;BME280;12193;42.642;23.384;2022-11-18T15:26:17;93044.41;;;16.31;76.35
6425;BME280;12193;42.642;23.384;2022-11-18T15:28:52;93029.53;;;16.12;78.78
6425;BME280;12193;42.642;23.384;2022-11-18T15:31:22;93012.53;;;16.04;80.08
6425;BME280;12193;42.642;23.384;2022-11-18T15:33:52;93024.63;;;15.90;80.34
6425;BME280;12193;42.642;23.384;2022-11-18T15:36:24;93031.78;;;15.75;82.46
6425;BME280;12193;42.642;23.384;2022-11-18T15:38:53;93036.28;;;15.64;83.90
6425;BME280;12193;42.642;23.384;2022-11-18T15:41:25;93019.22;;;15.77;81.32
6425;BME280;12193;42.642;23.384;2022-11-18T15:43:58;93011.00;;;15.98;78.37
6425;BME280;12193;42.642;23.384;2022-11-18T15:46:28;93013.38;;;15.95;77.81
6425;BME280;12193;42.642;23.384;2022-11-18T15:48:59;92992.84;;;16.12;76.62
6425;BME280;12193;42.642;23.384;2022-11-18T15:51:29;92984.69;;;16.13;75.69
6425;BME280;12193;42.642;23.384;2022-11-18T15:53:59;92996.22;;;16.12;74.68
6425;BME280;12193;42.642;23.384;2022-11-18T15:56:30;92989.06;;;16.33;73.08
6425;BME280;12193;42.642;23.384;2022-11-18T15:59:03;92999.03;;;16.36;72.80
6425;BME280;12193;42.642;23.384;2022-11-18T16:01:35;92985.41;;;16.34;73.32
6425;BME280;12193;42.642;23.384;2022-11-18T16:04:08;92967.84;;;16.29;73.45
6425;BME280;12193;42.642;23.384;2022-11-18T16:06:39;92982.53;;;16.30;72.70
6425;BME280;12193;42.642;23.384;2022-11-18T16:09:09;92987.88;;;16.54;70.98
6425;BME280;12193;42.642;23.384;2022-11-18T16:11:38;92976.22;;;16.69;69.67
6425;BME280;12193;42.642;23.384;2022-11-18T16:14:23;92972.22;;;16.77;69.48
6425;BME280;12193;42.642;23.384;2022-11-18T16:16:54;92975.28;;;16.56;73.86
6425;BME280;12193;42.642;23.384;2022-11-18T16:19:25;92973.66;;;16.16;76.01
6425;BME280;12193;42.642;23.384;2022-11-18T16:21:58;92974.69;;;16.25;73.95
6425;BME280;12193;42.642;23.384;2022-11-18T16:24:28;92995.13;;;16.28;75.39
6425;BME280;12193;42.642;23.384;2022-11-18T16:26:58;93027.53;;;15.94;78.44
6425;BME280;12193;42.642;23.384;2022-11-18T16:29:30;93050.84;;;15.90;80.46
6425;BME280;12193;42.642;23.384;2022-11-18T16:31:59;93049.34;;;15.69;80.46
6425;BME280;12193;42.642;23.384;2022-11-18T16:34:26;93032.13;;;15.49;84.98
6425;BME280;12193;42.642;23.384;2022-11-18T16:36:57;93036.56;;;15.48;83.42
6425;BME280;12193;42.642;23.384;2022-11-18T16:39:28;93039.19;;;15.48;83.95
6425;BME280;12193;42.642;23.384;2022-11-18T16:41:58;93033.97;;;15.43;87.32
6425;BME280;12193;42.642;23.384;2022-11-18T16:44:32;93050.72;;;15.57;85.57
6425;BME280;12193;42.642;23.384;2022-11-18T16:47:01;93049.16;;;15.51;84.39
6425;BME280;12193;42.642;23.384;2022-11-18T16:49:33;93037.09;;;15.55;83.86
6425;BME280;12193;42.642;23.384;2022-11-18T16:52:03;93032.88;;;15.64;84.93
6425;BME280;12193;42.642;23.384;2022-11-18T16:54:32;93033.97;;;15.43;87.55
6425;BME280;12193;42.642;23.384;2022-11-18T16:57:01;93041.56;;;15.45;87.21
6425;BME280;12193;42.642;23.384;2022-11-18T16:59:34;93064.06;;;15.51;87.91
6425;BME280;12193;42.642;23.384;2022-11-18T17:02:03;93045.25;;;15.44;85.58
6425;BME280;12193;42.642;23.384;2022-11-18T17:04:34;93029.69;;;15.77;82.29
6425;BME280;12193;42.642;23.384;2022-11-18T17:07:04;93021.78;;;15.82;82.31
6425;BME280;12193;42.642;23.384;2022-11-18T17:09:33;93047.47;;;15.80;82.59
6425;BME280;12193;42.642;23.384;2022-11-18T17:12:03;93060.13;;;15.58;86.21
6425;BME280;12193;42.642;23.384;2022-11-18T17:14:35;93048.09;;;15.57;84.13
6425;BME280;12193;42.642;23.384;2022-11-18T17:17:05;93035.75;;;15.58;86.45
6425;BME280;12193;42.642;23.384;2022-11-18T17:19:34;93027.19;;;15.32;87.47
6425;BME280;12193;42.642;23.384;2022-11-18T17:22:04;93039.47;;;15.22;87.21
6425;BME280;12193;42.642;23.384;2022-11-18T17:24:34;93049.94;;;15.12;87.21
6425;BME280;12193;42.642;23.384;2022-11-18T17:27:03;93039.22;;;15.08;87.34
6425;BME280;12193;42.642;23.384;2022-11-18T17:29:35;93036.34;;;15.20;86.89
6425;BME280;12193;42.642;23.384;2022-11-18T17:32:05;93034.81;;;15.29;85.65
6425;BME280;12193;42.642;23.384;2022-11-18T17:34:34;93014.34;;;15.36;86.24
6425;BME280;12193;42.642;23.384;2022-11-18T17:37:03;93019.34;;;15.37;85.26
6425;BME280;12193;42.642;23.384;2022-11-18T17:39:32;92997.59;;;15.37;85.53
6425;BME280;12193;42.642;23.384;2022-11-18T17:42:02;92989.72;;;15.42;85.41
6425;BME280;12193;42.642;23.384;2022-11-18T17:44:50;92996.00;;;15.41;86.27
6425;BME280;12193;42.642;23.384;2022-11-18T17:47:19;92985.31;;;15.32;86.79
6425;BME280;12193;42.642;23.384;2022-11-18T17:49:49;92989.78;;;15.27;88.11
6425;BME280;12193;42.642;23.384;2022-11-18T17:52:18;92976.38;;;15.23;88.09
6425;BME280;12193;42.642;23.384;2022-11-18T17:54:48;92973.25;;;15.31;87.68